sensor_id;sensor_type;location;lat;lon;timestamp;temperature;humidity
20319;DHT22;10317;47.254;11.314;2023-01-28T00:18:42;-2.30;99.90
20319;DHT22;10317;47.254;11.314;2023-01-28T00:21:12;-2.30;99.90
20319;DHT22;10317;47.254;11.314;2023-01-28T00:23:40;-2.30;99.90
20319;DHT22;10317;47.254;11.314;2023-01-28T00:26:10;-2.30;99.90
20319;DHT22;10317;47.254;11.314;2023-01-28T00:28:36;-2.20;99.90
20319;DHT22;10317;47.254;11.314;2023-01-28T00:31:19;-2.20;99.90
20319;DHT22;10317;47.254;11.314;2023-01-28T00:33:47;-2.20;99.90
20319;DHT22;10317;47.254;11.314;2023-01-28T00:36:13;-2.20;99.90
20319;DHT22;10317;47.254;11.314;2023-01-28T00:38:39;-2.20;99.90
20319;DHT22;10317;47.254;11.314;2023-01-28T00:41:18;-2.10;99.90
20319;DHT22;10317;47.254;11.314;2023-01-28T00:43:47;-2.10;99.90
20319;DHT22;10317;47.254;11.314;2023-01-28T00:46:13;-2.10;99.90
20319;DHT22;10317;47.254;11.314;2023-01-28T00:48:40;-2.10;99.90
20319;DHT22;10317;47.254;11.314;2023-01-28T00:51:07;-2.10;99.90
20319;DHT22;10317;47.254;11.314;2023-01-28T00:53:34;-2.10;99.90
20319;DHT22;10317;47.254;11.314;2023-01-28T00:56:00;-2.20;99.90
20319;DHT22;10317;47.254;11.314;2023-01-28T00:58:26;-2.10;99.90
20319;DHT22;10317;47.254;11.314;2023-01-28T01:00:52;-2.20;99.90
20319;DHT22;10317;47.254;11.314;2023-01-28T01:03:18;-2.10;99.90
20319;DHT22;10317;47.254;11.314;2023-01-28T01:05:45;-2.20;99.90
20319;DHT22;10317;47.254;11.314;2023-01-28T01:08:11;-2.20;99.90
20319;DHT22;10317;47.254;11.314;2023-01-28T01:10:38;-2.10;99.90
20319;DHT22;10317;47.254;11.314;2023-01-28T01:13:05;-2.20;99.90
20319;DHT22;10317;47.254;11.314;2023-01-28T01:15:31;-2.20;99.90
20319;DHT22;10317;47.254;11.314;2023-01-28T01:17:58;-2.20;99.90
20319;DHT22;10317;47.254;11.314;2023-01-28T01:20:27;-2.20;99.90
20319;DHT22;10317;47.254;11.314;2023-01-28T01:22:56;-2.20;99.90
20319;DHT22;10317;47.254;11.314;2023-01-28T01:25:22;-2.30;99.90
20319;DHT22;10317;47.254;11.314;2023-01-28T01:27:48;-2.30;99.90
20319;DHT22;10317;47.254;11.314;2023-01-28T01:30:15;-2.40;99.90
20319;DHT22;10317;47.254;11.314;2023-01-28T01:32:41;-2.50;99.90
20319;DHT22;10317;47.254;11.314;2023-01-28T01:35:08;-2.50;99.90
20319;DHT22;10317;47.254;11.314;2023-01-28T01:37:37;-2.50;99.90
20319;DHT22;10317;47.254;11.314;2023-01-28T01:40:04;-2.50;99.90
20319;DHT22;10317;47.254;11.314;2023-01-28T01:42:32;-2.50;99.90
20319;DHT22;10317;47.254;11.314;2023-01-28T01:50:21;-2.50;99.90
20319;DHT22;10317;47.254;11.314;2023-01-28T01:52:51;-2.50;99.90
20319;DHT22;10317;47.254;11.314;2023-01-28T01:55:20;-2.60;99.90
20319;DHT22;10317;47.254;11.314;2023-01-28T01:57:50;-2.60;99.90
20319;DHT22;10317;47.254;11.314;2023-01-28T02:00:18;-2.60;99.90
20319;DHT22;10317;47.254;11.314;2023-01-28T02:02:46;-2.60;99.90
20319;DHT22;10317;47.254;11.314;2023-01-28T02:05:15;-2.60;99.90
20319;DHT22;10317;47.254;11.314;2023-01-28T02:07:45;-2.60;99.90
20319;DHT22;10317;47.254;11.314;2023-01-28T02:10:12;-2.70;99.90
20319;DHT22;10317;47.254;11.314;2023-01-28T02:12:46;-2.70;99.90
20319;DHT22;10317;47.254;11.314;2023-01-28T02:15:17;-2.60;99.90
20319;DHT22;10317;47.254;11.314;2023-01-28T02:17:44;-2.60;99.90
20319;DHT22;10317;47.254;11.314;2023-01-28T02:20:13;-2.60;99.90
20319;DHT22;10317;47.254;11.314;2023-01-28T02:28:51;-2.70;99.90
20319;DHT22;10317;47.254;11.314;2023-01-28T02:32:07;-2.70;99.90
20319;DHT22;10317;47.254;11.314;2023-01-28T02:34:46;-2.70;99.90
20319;DHT22;10317;47.254;11.314;2023-01-28T02:37:20;-2.60;99.90
20319;DHT22;10317;47.254;11.314;2023-01-28T02:39:59;-2.70;99.90
20319;DHT22;10317;47.254;11.314;2023-01-28T02:42:31;-2.60;99.90
20319;DHT22;10317;47.254;11.314;2023-01-28T02:44:58;-2.70;99.90
20319;DHT22;10317;47.254;11.314;2023-01-28T02:47:24;-2.70;99.90
20319;DHT22;10317;47.254;11.314;2023-01-28T02:50:11;-2.70;99.90
20319;DHT22;10317;47.254;11.314;2023-01-28T02:53:17;-2.70;99.90
20319;DHT22;10317;47.254;11.314;2023-01-28T02:58:41;-2.80;99.90
20319;DHT22;10317;47.254;11.314;2023-01-28T03:01:30;-2.80;99.90
20319;DHT22;10317;47.254;11.314;2023-01-28T03:04:02;-2.80;99.90
20319;DHT22;10317;47.254;11.314;2023-01-28T03:06:50;-2.90;99.90
20319;DHT22;10317;47.254;11.314;2023-01-28T03:09:18;-2.90;99.90
20319;DHT22;10317;47.254;11.314;2023-01-28T03:14:38;-3.00;99.90
20319;DHT22;10317;47.254;11.314;2023-01-28T03:17:34;-3.00;99.90
20319;DHT22;10317;47.254;11.314;2023-01-28T03:20:24;-3.00;99.90
20319;DHT22;10317;47.254;11.314;2023-01-28T03:23:13;-2.90;99.90
20319;DHT22;10317;47.254;11.314;2023-01-28T03:26:00;-3.00;99.90
20319;DHT22;10317;47.254;11.314;2023-01-28T03:28:47;-3.00;99.90
20319;DHT22;10317;47.254;11.314;2023-01-28T03:31:34;-3.00;99.90
20319;DHT22;10317;47.254;11.314;2023-01-28T03:34:20;-3.10;99.90
20319;DHT22;10317;47.254;11.314;2023-01-28T03:37:05;-3.00;99.90
20319;DHT22;10317;47.254;11.314;2023-01-28T03:39:31;-3.10;99.90
20319;DHT22;10317;47.254;11.314;2023-01-28T03:42:00;-3.20;99.90
20319;DHT22;10317;47.254;11.314;2023-01-28T03:44:26;-3.20;99.90
20319;DHT22;10317;47.254;11.314;2023-01-28T03:47:11;-3.20;99.90
20319;DHT22;10317;47.254;11.314;2023-01-28T03:49:42;-3.20;99.90
20319;DHT22;10317;47.254;11.314;2023-01-28T03:52:13;-3.20;99.90
20319;DHT22;10317;47.254;11.314;2023-01-28T03:54:43;-3.20;99.90
20319;DHT22;10317;47.254;11.314;2023-01-28T03:57:18;-3.20;99.90
20319;DHT22;10317;47.254;11.314;2023-01-28T03:59:44;-3.20;99.90
20319;DHT22;10317;47.254;11.314;2023-01-28T04:02:11;-3.20;99.90
20319;DHT22;10317;47.254;11.314;2023-01-28T04:04:40;-3.30;99.90
20319;DHT22;10317;47.254;11.314;2023-01-28T04:07:08;-3.20;99.90
20319;DHT22;10317;47.254;11.314;2023-01-28T04:09:38;-3.30;99.90
20319;DHT22;10317;47.254;11.314;2023-01-28T04:12:04;-3.20;99.90
20319;DHT22;10317;47.254;11.314;2023-01-28T04:14:31;-3.30;99.90
20319;DHT22;10317;47.254;11.314;2023-01-28T04:16:57;-3.30;99.90
20319;DHT22;10317;47.254;11.314;2023-01-28T04:19:23;-3.30;99.90
20319;DHT22;10317;47.254;11.314;2023-01-28T04:21:49;-3.30;99.90
20319;DHT22;10317;47.254;11.314;2023-01-28T04:24:15;-3.20;99.90
20319;DHT22;10317;47.254;11.314;2023-01-28T04:26:41;-3.30;99.90
20319;DHT22;10317;47.254;11.314;2023-01-28T04:29:07;-3.30;99.90
20319;DHT22;10317;47.254;11.314;2023-01-28T04:31:33;-3.30;99.90
20319;DHT22;10317;47.254;11.314;2023-01-28T05:22:20;-3.50;99.90
20319;DHT22;10317;47.254;11.314;2023-01-28T05:24:46;-3.50;99.90
20319;DHT22;10317;47.254;11.314;2023-01-28T05:27:14;-3.40;99.90
20319;DHT22;10317;47.254;11.314;2023-01-28T05:29:42;-3.40;99.90
20319;DHT22;10317;47.254;11.314;2023-01-28T05:32:08;-3.40;99.90
20319;DHT22;10317;47.254;11.314;2023-01-28T05:34:34;-3.30;99.90
20319;DHT22;10317;47.254;11.314;2023-01-28T05:37:02;-3.40;99.90
20319;DHT22;10317;47.254;11.314;2023-01-28T05:39:28;-3.30;99.90
20319;DHT22;10317;47.254;11.314;2023-01-28T05:41:54;-3.30;99.90
20319;DHT22;10317;47.254;11.314;2023-01-28T05:44:20;-3.30;99.90
20319;DHT22;10317;47.254;11.314;2023-01-28T05:46:45;-3.30;99.90
20319;DHT22;10317;47.254;11.314;2023-01-28T05:49:15;-3.30;99.90
20319;DHT22;10317;47.254;11.314;2023-01-28T05:51:42;-3.30;99.90
20319;DHT22;10317;47.254;11.314;2023-01-28T05:54:08;-3.30;99.90
20319;DHT22;10317;47.254;11.314;2023-01-28T05:56:37;-3.30;99.90
20319;DHT22;10317;47.254;11.314;2023-01-28T05:59:04;-3.30;99.90
20319;DHT22;10317;47.254;11.314;2023-01-28T06:01:30;-3.30;99.90
20319;DHT22;10317;47.254;11.314;2023-01-28T06:03:56;-3.30;99.90
20319;DHT22;10317;47.254;11.314;2023-01-28T06:06:25;-3.30;99.90
20319;DHT22;10317;47.254;11.314;2023-01-28T06:08:51;-3.30;99.90
20319;DHT22;10317;47.254;11.314;2023-01-28T06:11:16;-3.30;99.90
20319;DHT22;10317;47.254;11.314;2023-01-28T06:13:42;-3.30;99.90
20319;DHT22;10317;47.254;11.314;2023-01-28T06:16:08;-3.30;99.90
20319;DHT22;10317;47.254;11.314;2023-01-28T06:18:36;-3.30;99.90
20319;DHT22;10317;47.254;11.314;2023-01-28T06:21:02;-3.30;99.90
20319;DHT22;10317;47.254;11.314;2023-01-28T06:23:28;-3.30;99.90
20319;DHT22;10317;47.254;11.314;2023-01-28T06:25:55;-3.30;99.90
20319;DHT22;10317;47.254;11.314;2023-01-28T06:28:21;-3.30;99.90
20319;DHT22;10317;47.254;11.314;2023-01-28T06:30:51;-3.20;99.90
20319;DHT22;10317;47.254;11.314;2023-01-28T06:33:18;-3.30;99.90
20319;DHT22;10317;47.254;11.314;2023-01-28T06:35:44;-3.30;99.90
20319;DHT22;10317;47.254;11.314;2023-01-28T06:38:11;-3.40;99.90
20319;DHT22;10317;47.254;11.314;2023-01-28T06:40:37;-3.30;99.90
20319;DHT22;10317;47.254;11.314;2023-01-28T06:43:03;-3.30;99.90
20319;DHT22;10317;47.254;11.314;2023-01-28T06:45:30;-3.30;99.90
20319;DHT22;10317;47.254;11.314;2023-01-28T06:47:56;-3.30;99.90
20319;DHT22;10317;47.254;11.314;2023-01-28T06:50:22;-3.30;99.90
20319;DHT22;10317;47.254;11.314;2023-01-28T06:53:08;-3.20;99.90
20319;DHT22;10317;47.254;11.314;2023-01-28T06:55:34;-3.20;99.90
20319;DHT22;10317;47.254;11.314;2023-01-28T06:57:59;-3.20;99.90
20319;DHT22;10317;47.254;11.314;2023-01-28T07:00:25;-3.20;99.90
20319;DHT22;10317;47.254;11.314;2023-01-28T07:02:54;-3.10;99.90
20319;DHT22;10317;47.254;11.314;2023-01-28T07:05:21;-3.20;99.90
20319;DHT22;10317;47.254;11.314;2023-01-28T07:07:47;-3.10;99.90
20319;DHT22;10317;47.254;11.314;2023-01-28T07:10:13;-3.10;99.90
20319;DHT22;10317;47.254;11.314;2023-01-28T07:12:39;-3.10;99.90
20319;DHT22;10317;47.254;11.314;2023-01-28T07:15:05;-3.10;99.90
20319;DHT22;10317;47.254;11.314;2023-01-28T07:17:31;-3.00;99.90
20319;DHT22;10317;47.254;11.314;2023-01-28T07:19:57;-3.00;99.90
20319;DHT22;10317;47.254;11.314;2023-01-28T07:22:23;-3.10;99.90
20319;DHT22;10317;47.254;11.314;2023-01-28T07:24:48;-3.00;99.90
20319;DHT22;10317;47.254;11.314;2023-01-28T07:27:14;-3.00;99.90
20319;DHT22;10317;47.254;11.314;2023-01-28T07:29:40;-3.00;99.90
20319;DHT22;10317;47.254;11.314;2023-01-28T07:32:05;-2.90;99.90
20319;DHT22;10317;47.254;11.314;2023-01-28T07:34:32;-2.90;99.90
20319;DHT22;10317;47.254;11.314;2023-01-28T07:36:58;-2.80;99.90
20319;DHT22;10317;47.254;11.314;2023-01-28T07:39:24;-2.70;99.90
20319;DHT22;10317;47.254;11.314;2023-01-28T07:41:49;-2.70;99.90
20319;DHT22;10317;47.254;11.314;2023-01-28T07:44:15;-2.60;99.90
20319;DHT22;10317;47.254;11.314;2023-01-28T07:46:41;-2.60;99.90
20319;DHT22;10317;47.254;11.314;2023-01-28T07:49:06;-2.50;99.90
20319;DHT22;10317;47.254;11.314;2023-01-28T07:51:32;-2.40;99.90
20319;DHT22;10317;47.254;11.314;2023-01-28T07:53:58;-2.30;99.90
20319;DHT22;10317;47.254;11.314;2023-01-28T07:56:23;-2.30;99.90
20319;DHT22;10317;47.254;11.314;2023-01-28T07:58:51;-2.20;99.90
20319;DHT22;10317;47.254;11.314;2023-01-28T08:01:17;-2.10;99.90
20319;DHT22;10317;47.254;11.314;2023-01-28T08:03:44;-2.10;99.90
20319;DHT22;10317;47.254;11.314;2023-01-28T08:06:09;-2.00;99.90
20319;DHT22;10317;47.254;11.314;2023-01-28T08:08:36;-1.90;99.90
20319;DHT22;10317;47.254;11.314;2023-01-28T08:11:09;-1.90;99.90
20319;DHT22;10317;47.254;11.314;2023-01-28T08:13:35;-1.80;99.90
20319;DHT22;10317;47.254;11.314;2023-01-28T08:16:01;-1.70;99.90
20319;DHT22;10317;47.254;11.314;2023-01-28T08:18:27;-1.70;99.90
20319;DHT22;10317;47.254;11.314;2023-01-28T08:20:56;-1.60;99.90
20319;DHT22;10317;47.254;11.314;2023-01-28T08:23:23;-1.60;99.90
20319;DHT22;10317;47.254;11.314;2023-01-28T08:25:51;-1.50;99.90
20319;DHT22;10317;47.254;11.314;2023-01-28T08:28:17;-1.50;99.90
20319;DHT22;10317;47.254;11.314;2023-01-28T08:30:43;-1.60;99.90
20319;DHT22;10317;47.254;11.314;2023-01-28T08:33:10;-1.70;99.90
20319;DHT22;10317;47.254;11.314;2023-01-28T08:35:39;-1.70;99.90
20319;DHT22;10317;47.254;11.314;2023-01-28T08:38:06;-1.60;99.90
20319;DHT22;10317;47.254;11.314;2023-01-28T08:40:33;-1.60;99.90
20319;DHT22;10317;47.254;11.314;2023-01-28T08:42:59;-1.60;99.90
20319;DHT22;10317;47.254;11.314;2023-01-28T08:45:26;-1.50;99.90
20319;DHT22;10317;47.254;11.314;2023-01-28T08:48:00;-1.40;99.90
20319;DHT22;10317;47.254;11.314;2023-01-28T08:50:31;-1.20;99.90
20319;DHT22;10317;47.254;11.314;2023-01-28T08:53:03;-1.30;99.90
20319;DHT22;10317;47.254;11.314;2023-01-28T08:55:30;-1.20;99.90
20319;DHT22;10317;47.254;11.314;2023-01-28T08:57:56;-1.30;99.90
20319;DHT22;10317;47.254;11.314;2023-01-28T09:00:22;-1.20;99.90
20319;DHT22;10317;47.254;11.314;2023-01-28T09:02:52;-1.00;99.90
20319;DHT22;10317;47.254;11.314;2023-01-28T09:05:18;-1.00;99.90
20319;DHT22;10317;47.254;11.314;2023-01-28T09:07:44;-1.10;99.90
20319;DHT22;10317;47.254;11.314;2023-01-28T09:10:10;-1.20;99.90
20319;DHT22;10317;47.254;11.314;2023-01-28T09:12:36;-1.20;99.90
20319;DHT22;10317;47.254;11.314;2023-01-28T09:15:11;-1.20;99.90
20319;DHT22;10317;47.254;11.314;2023-01-28T09:17:37;-1.00;99.90
20319;DHT22;10317;47.254;11.314;2023-01-28T09:20:03;-0.90;99.90
20319;DHT22;10317;47.254;11.314;2023-01-28T09:22:29;-0.90;99.90
20319;DHT22;10317;47.254;11.314;2023-01-28T09:24:58;-1.10;99.90
20319;DHT22;10317;47.254;11.314;2023-01-28T09:27:27;-1.10;99.90
20319;DHT22;10317;47.254;11.314;2023-01-28T09:30:18;-1.00;99.90
20319;DHT22;10317;47.254;11.314;2023-01-28T09:32:52;-1.00;99.90
20319;DHT22;10317;47.254;11.314;2023-01-28T09:38:39;-0.80;99.90
20319;DHT22;10317;47.254;11.314;2023-01-28T09:41:29;-0.80;99.90
20319;DHT22;10317;47.254;11.314;2023-01-28T09:44:06;-0.70;99.90
20319;DHT22;10317;47.254;11.314;2023-01-28T09:50:48;-0.50;99.90
20319;DHT22;10317;47.254;11.314;2023-01-28T09:53:09;-0.70;99.90
20319;DHT22;10317;47.254;11.314;2023-01-28T09:55:43;-0.60;99.90
20319;DHT22;10317;47.254;11.314;2023-01-28T09:58:15;-0.60;99.90
20319;DHT22;10317;47.254;11.314;2023-01-28T10:17:24;-0.40;99.90
20319;DHT22;10317;47.254;11.314;2023-01-28T10:20:29;-0.30;99.90
20319;DHT22;10317;47.254;11.314;2023-01-28T10:23:30;-0.20;99.90
20319;DHT22;10317;47.254;11.314;2023-01-28T10:26:35;-0.20;99.90
20319;DHT22;10317;47.254;11.314;2023-01-28T10:29:18;-0.30;99.90
20319;DHT22;10317;47.254;11.314;2023-01-28T10:31:52;-0.40;99.90
20319;DHT22;10317;47.254;11.314;2023-01-28T10:34:21;-0.40;99.90
20319;DHT22;10317;47.254;11.314;2023-01-28T10:36:59;-0.40;99.90
20319;DHT22;10317;47.254;11.314;2023-01-28T10:39:45;-0.30;99.90
20319;DHT22;10317;47.254;11.314;2023-01-28T10:42:35;0.00;99.90
20319;DHT22;10317;47.254;11.314;2023-01-28T10:45:20;0.20;99.90
20319;DHT22;10317;47.254;11.314;2023-01-28T10:47:55;0.30;99.90
20319;DHT22;10317;47.254;11.314;2023-01-28T10:50:26;0.40;99.90
20319;DHT22;10317;47.254;11.314;2023-01-28T10:52:59;0.40;99.90
20319;DHT22;10317;47.254;11.314;2023-01-28T10:55:48;0.70;99.90
20319;DHT22;10317;47.254;11.314;2023-01-28T10:58:23;0.90;99.90
20319;DHT22;10317;47.254;11.314;2023-01-28T11:00:54;1.20;99.90
20319;DHT22;10317;47.254;11.314;2023-01-28T11:03:23;1.30;99.90
20319;DHT22;10317;47.254;11.314;2023-01-28T11:05:53;1.20;99.90
20319;DHT22;10317;47.254;11.314;2023-01-28T11:08:20;1.30;99.90
20319;DHT22;10317;47.254;11.314;2023-01-28T11:10:47;1.30;99.90
20319;DHT22;10317;47.254;11.314;2023-01-28T11:13:24;1.00;99.90
20319;DHT22;10317;47.254;11.314;2023-01-28T11:15:59;0.80;99.90
20319;DHT22;10317;47.254;11.314;2023-01-28T11:18:31;0.70;99.90
20319;DHT22;10317;47.254;11.314;2023-01-28T11:21:04;0.80;99.90
20319;DHT22;10317;47.254;11.314;2023-01-28T11:31:25;0.50;99.90
20319;DHT22;10317;47.254;11.314;2023-01-28T11:37:16;0.40;99.90
20319;DHT22;10317;47.254;11.314;2023-01-28T11:39:45;0.20;99.90
20319;DHT22;10317;47.254;11.314;2023-01-28T11:42:23;0.50;99.90
20319;DHT22;10317;47.254;11.314;2023-01-28T11:44:58;0.30;99.90
20319;DHT22;10317;47.254;11.314;2023-01-28T11:50:30;0.50;99.90
20319;DHT22;10317;47.254;11.314;2023-01-28T12:01:50;1.00;99.90
20319;DHT22;10317;47.254;11.314;2023-01-28T12:14:07;0.70;99.90
20319;DHT22;10317;47.254;11.314;2023-01-28T12:20:08;0.60;99.90
20319;DHT22;10317;47.254;11.314;2023-01-28T12:38:48;0.90;99.90
20319;DHT22;10317;47.254;11.314;2023-01-28T12:41:38;0.90;99.90
20319;DHT22;10317;47.254;11.314;2023-01-28T12:45:09;1.10;99.90
20319;DHT22;10317;47.254;11.314;2023-01-28T12:47:51;1.20;99.90
20319;DHT22;10317;47.254;11.314;2023-01-28T12:54:22;1.40;99.90
20319;DHT22;10317;47.254;11.314;2023-01-28T12:57:00;1.30;99.90
20319;DHT22;10317;47.254;11.314;2023-01-28T13:00:18;1.10;99.90
20319;DHT22;10317;47.254;11.314;2023-01-28T13:03:16;0.90;99.90
20319;DHT22;10317;47.254;11.314;2023-01-28T13:05:49;0.80;99.90
20319;DHT22;10317;47.254;11.314;2023-01-28T13:08:35;0.80;99.90
20319;DHT22;10317;47.254;11.314;2023-01-28T13:11:03;0.70;99.90
20319;DHT22;10317;47.254;11.314;2023-01-28T13:13:35;0.60;99.90
20319;DHT22;10317;47.254;11.314;2023-01-28T13:16:04;0.60;99.90
20319;DHT22;10317;47.254;11.314;2023-01-28T13:19:03;0.60;99.90
20319;DHT22;10317;47.254;11.314;2023-01-28T13:21:37;0.70;99.90
20319;DHT22;10317;47.254;11.314;2023-01-28T13:24:19;0.60;99.90
20319;DHT22;10317;47.254;11.314;2023-01-28T13:31:55;0.70;99.90
20319;DHT22;10317;47.254;11.314;2023-01-28T13:34:42;0.60;99.90
20319;DHT22;10317;47.254;11.314;2023-01-28T13:39:49;0.70;99.90
20319;DHT22;10317;47.254;11.314;2023-01-28T13:42:23;0.60;99.90
20319;DHT22;10317;47.254;11.314;2023-01-28T13:44:49;0.60;99.90
20319;DHT22;10317;47.254;11.314;2023-01-28T13:47:24;0.60;99.90
20319;DHT22;10317;47.254;11.314;2023-01-28T13:50:10;0.70;99.90
20319;DHT22;10317;47.254;11.314;2023-01-28T13:52:54;0.70;99.90
20319;DHT22;10317;47.254;11.314;2023-01-28T13:55:24;0.80;99.90
20319;DHT22;10317;47.254;11.314;2023-01-28T14:03:39;1.30;99.90
20319;DHT22;10317;47.254;11.314;2023-01-28T14:14:59;2.10;99.90
20319;DHT22;10317;47.254;11.314;2023-01-28T14:17:50;2.10;99.90
20319;DHT22;10317;47.254;11.314;2023-01-28T14:20:18;2.30;99.90
20319;DHT22;10317;47.254;11.314;2023-01-28T14:22:45;2.30;99.90
20319;DHT22;10317;47.254;11.314;2023-01-28T14:25:43;2.20;99.90
20319;DHT22;10317;47.254;11.314;2023-01-28T14:31:32;2.10;99.90
20319;DHT22;10317;47.254;11.314;2023-01-28T14:34:15;1.80;99.90
20319;DHT22;10317;47.254;11.314;2023-01-28T14:36:44;1.70;99.90
20319;DHT22;10317;47.254;11.314;2023-01-28T14:39:31;1.60;99.90
20319;DHT22;10317;47.254;11.314;2023-01-28T14:41:59;1.40;99.90
20319;DHT22;10317;47.254;11.314;2023-01-28T14:44:37;1.40;99.90
20319;DHT22;10317;47.254;11.314;2023-01-28T14:50:33;1.20;99.90
20319;DHT22;10317;47.254;11.314;2023-01-28T14:55:41;1.10;99.90
20319;DHT22;10317;47.254;11.314;2023-01-28T14:58:15;1.10;99.90
20319;DHT22;10317;47.254;11.314;2023-01-28T15:00:53;1.20;99.90
20319;DHT22;10317;47.254;11.314;2023-01-28T15:03:20;1.10;99.90
20319;DHT22;10317;47.254;11.314;2023-01-28T15:05:46;1.10;99.90
20319;DHT22;10317;47.254;11.314;2023-01-28T15:08:21;1.10;99.90
20319;DHT22;10317;47.254;11.314;2023-01-28T15:10:50;1.20;99.90
20319;DHT22;10317;47.254;11.314;2023-01-28T15:13:28;1.10;99.90
20319;DHT22;10317;47.254;11.314;2023-01-28T15:15:55;1.20;99.90
20319;DHT22;10317;47.254;11.314;2023-01-28T15:18:35;1.20;99.90
20319;DHT22;10317;47.254;11.314;2023-01-28T15:21:05;1.20;99.90
20319;DHT22;10317;47.254;11.314;2023-01-28T15:23:40;1.20;99.90
20319;DHT22;10317;47.254;11.314;2023-01-28T15:26:10;1.10;99.90
20319;DHT22;10317;47.254;11.314;2023-01-28T15:28:42;1.00;99.90
20319;DHT22;10317;47.254;11.314;2023-01-28T15:31:29;0.90;99.90
20319;DHT22;10317;47.254;11.314;2023-01-28T15:33:59;0.90;99.90
20319;DHT22;10317;47.254;11.314;2023-01-28T15:36:26;0.90;99.90
20319;DHT22;10317;47.254;11.314;2023-01-28T15:38:53;0.90;99.90
20319;DHT22;10317;47.254;11.314;2023-01-28T15:41:28;0.90;99.90
20319;DHT22;10317;47.254;11.314;2023-01-28T15:43:57;0.90;99.90
20319;DHT22;10317;47.254;11.314;2023-01-28T15:46:22;0.90;99.90
20319;DHT22;10317;47.254;11.314;2023-01-28T15:48:57;0.80;99.90
20319;DHT22;10317;47.254;11.314;2023-01-28T15:58:28;0.80;99.90
20319;DHT22;10317;47.254;11.314;2023-01-28T16:01:17;0.70;99.90
20319;DHT22;10317;47.254;11.314;2023-01-28T16:04:06;0.70;99.90
20319;DHT22;10317;47.254;11.314;2023-01-28T16:06:42;0.70;99.90
20319;DHT22;10317;47.254;11.314;2023-01-28T16:09:32;0.70;99.90
20319;DHT22;10317;47.254;11.314;2023-01-28T16:12:07;0.60;99.90
20319;DHT22;10317;47.254;11.314;2023-01-28T16:15:03;0.60;99.90
20319;DHT22;10317;47.254;11.314;2023-01-28T16:17:46;0.50;99.90
20319;DHT22;10317;47.254;11.314;2023-01-28T16:20:25;0.50;99.90
20319;DHT22;10317;47.254;11.314;2023-01-28T16:23:00;0.40;99.90
20319;DHT22;10317;47.254;11.314;2023-01-28T16:35:28;0.30;99.90
20319;DHT22;10317;47.254;11.314;2023-01-28T16:37:56;0.20;99.90
20319;DHT22;10317;47.254;11.314;2023-01-28T16:40:43;0.20;99.90
20319;DHT22;10317;47.254;11.314;2023-01-28T18:03:25;-0.20;99.90
20319;DHT22;10317;47.254;11.314;2023-01-28T18:06:03;-0.30;99.90
20319;DHT22;10317;47.254;11.314;2023-01-28T18:08:33;-0.30;99.90
20319;DHT22;10317;47.254;11.314;2023-01-28T18:10:59;-0.30;99.90
20319;DHT22;10317;47.254;11.314;2023-01-28T18:13:28;-0.30;99.90
20319;DHT22;10317;47.254;11.314;2023-01-28T18:16:17;-0.30;99.90
20319;DHT22;10317;47.254;11.314;2023-01-28T18:18:44;-0.30;99.90
20319;DHT22;10317;47.254;11.314;2023-01-28T18:21:21;-0.40;99.90
20319;DHT22;10317;47.254;11.314;2023-01-28T18:23:57;-0.30;99.90
20319;DHT22;10317;47.254;11.314;2023-01-28T18:26:32;-0.30;99.90
20319;DHT22;10317;47.254;11.314;2023-01-28T18:29:11;-0.30;99.90
20319;DHT22;10317;47.254;11.314;2023-01-28T18:35:23;-0.40;99.90
20319;DHT22;10317;47.254;11.314;2023-01-28T18:44:35;-0.40;99.90
20319;DHT22;10317;47.254;11.314;2023-01-28T18:47:02;-0.40;99.90
20319;DHT22;10317;47.254;11.314;2023-01-28T18:49:28;-0.40;99.90
20319;DHT22;10317;47.254;11.314;2023-01-28T18:51:53;-0.40;99.90
20319;DHT22;10317;47.254;11.314;2023-01-28T18:54:19;-0.40;99.90
20319;DHT22;10317;47.254;11.314;2023-01-28T18:57:26;-0.40;99.90
20319;DHT22;10317;47.254;11.314;2023-01-28T18:59:57;-0.40;99.90
20319;DHT22;10317;47.254;11.314;2023-01-28T19:02:23;-0.50;99.90
20319;DHT22;10317;47.254;11.314;2023-01-28T19:04:56;-0.50;99.90
20319;DHT22;10317;47.254;11.314;2023-01-28T19:07:22;-0.50;99.90
20319;DHT22;10317;47.254;11.314;2023-01-28T19:10:06;-0.50;99.90
20319;DHT22;10317;47.254;11.314;2023-01-28T19:12:33;-0.50;99.90
20319;DHT22;10317;47.254;11.314;2023-01-28T19:14:58;-0.50;99.90
20319;DHT22;10317;47.254;11.314;2023-01-28T19:17:24;-0.50;99.90
20319;DHT22;10317;47.254;11.314;2023-01-28T19:19:50;-0.60;99.90
20319;DHT22;10317;47.254;11.314;2023-01-28T19:22:16;-0.50;99.90
20319;DHT22;10317;47.254;11.314;2023-01-28T19:24:42;-0.60;99.90
20319;DHT22;10317;47.254;11.314;2023-01-28T19:27:08;-0.60;99.90
20319;DHT22;10317;47.254;11.314;2023-01-28T19:29:33;-0.60;99.90
20319;DHT22;10317;47.254;11.314;2023-01-28T19:31:59;-0.70;99.90
20319;DHT22;10317;47.254;11.314;2023-01-28T19:34:25;-0.60;99.90
20319;DHT22;10317;47.254;11.314;2023-01-28T19:36:51;-0.60;99.90
20319;DHT22;10317;47.254;11.314;2023-01-28T20:06:56;-0.80;99.90
20319;DHT22;10317;47.254;11.314;2023-01-28T20:09:24;-0.90;99.90
20319;DHT22;10317;47.254;11.314;2023-01-28T20:11:50;-0.90;99.90
20319;DHT22;10317;47.254;11.314;2023-01-28T20:14:15;-1.00;99.90
20319;DHT22;10317;47.254;11.314;2023-01-28T20:16:42;-1.00;99.90
20319;DHT22;10317;47.254;11.314;2023-01-28T20:19:13;-1.20;99.90
20319;DHT22;10317;47.254;11.314;2023-01-28T20:21:40;-1.20;99.90
20319;DHT22;10317;47.254;11.314;2023-01-28T20:24:06;-1.30;99.90
20319;DHT22;10317;47.254;11.314;2023-01-28T20:26:34;-1.40;99.90
20319;DHT22;10317;47.254;11.314;2023-01-28T20:29:03;-1.50;99.90
20319;DHT22;10317;47.254;11.314;2023-01-28T20:55:02;-1.70;99.90
20319;DHT22;10317;47.254;11.314;2023-01-28T20:57:29;-1.70;99.90
20319;DHT22;10317;47.254;11.314;2023-01-28T20:59:55;-1.80;99.90
20319;DHT22;10317;47.254;11.314;2023-01-28T21:02:20;-1.80;99.90
20319;DHT22;10317;47.254;11.314;2023-01-28T21:04:46;-1.80;99.90
20319;DHT22;10317;47.254;11.314;2023-01-28T21:07:19;-1.80;99.90
20319;DHT22;10317;47.254;11.314;2023-01-28T21:09:50;-1.80;99.90
20319;DHT22;10317;47.254;11.314;2023-01-28T21:12:16;-1.80;99.90
20319;DHT22;10317;47.254;11.314;2023-01-28T21:14:42;-1.70;99.90
20319;DHT22;10317;47.254;11.314;2023-01-28T21:17:07;-1.80;99.90
20319;DHT22;10317;47.254;11.314;2023-01-28T21:19:33;-1.80;99.90
20319;DHT22;10317;47.254;11.314;2023-01-28T21:21:58;-1.70;99.90
20319;DHT22;10317;47.254;11.314;2023-01-28T21:24:24;-1.70;99.90
20319;DHT22;10317;47.254;11.314;2023-01-28T21:26:50;-1.70;99.90
20319;DHT22;10317;47.254;11.314;2023-01-28T21:29:15;-1.70;99.90
20319;DHT22;10317;47.254;11.314;2023-01-28T21:31:43;-1.70;99.90
20319;DHT22;10317;47.254;11.314;2023-01-28T21:34:09;-1.70;99.90
20319;DHT22;10317;47.254;11.314;2023-01-28T21:36:35;-1.80;99.90
20319;DHT22;10317;47.254;11.314;2023-01-28T21:39:03;-1.80;99.90
20319;DHT22;10317;47.254;11.314;2023-01-28T21:41:30;-1.80;99.90